Time;durP1;ratioP1;P1;durP2;ratioP2;P2;SDS_P1;SDS_P2;PMS_P1;PMS_P2;Temp;Humidity;BMP_temperature;BMP_pressure;BME280_temperature;BME280_humidity;BME280_pressure;Samples;Min_cycle;Max_cycle;Signal;HPM_P1;HPM_P2
2023/01/08 00:01:05;;;;;;;244.00;117.50;;;;;;;2.80;100.00;95157.59;5019591;28;20207;-76
2023/01/08 00:03:31;;;;;;;247.43;115.13;;;;;;;2.83;100.00;95149.56;5018836;28;20198;-77
2023/01/08 00:06:01;;;;;;;249.57;115.63;;;;;;;2.88;100.00;95147.38;5019064;28;20202;-76
2023/01/08 00:08:28;;;;;;;245.73;113.20;;;;;;;2.91;99.54;95159.88;5020771;28;20277;-76
2023/01/08 00:10:57;;;;;;;214.03;99.80;;;;;;;2.85;100.00;95150.25;5019884;28;20226;-77
2023/01/08 00:13:24;;;;;;;196.83;94.53;;;;;;;2.85;99.75;95153.63;5019063;28;20203;-77
2023/01/08 00:15:51;;;;;;;216.97;99.20;;;;;;;2.76;100.00;95151.19;5018800;28;20207;-78
2023/01/08 00:18:18;;;;;;;191.87;89.67;;;;;;;2.70;100.00;95147.50;5020169;28;20194;-77
2023/01/08 00:20:45;;;;;;;181.87;88.90;;;;;;;2.74;100.00;95148.00;5017601;28;20202;-79
2023/01/08 00:23:13;;;;;;;187.10;89.13;;;;;;;2.81;100.00;95152.31;5014402;28;20237;-77
2023/01/08 00:25:40;;;;;;;193.67;91.30;;;;;;;2.63;100.00;95132.88;5018870;28;20191;-77
2023/01/08 00:28:08;;;;;;;180.10;88.40;;;;;;;2.73;100.00;95146.38;5018562;28;20191;-77
2023/01/08 00:30:35;;;;;;;198.60;89.93;;;;;;;2.73;100.00;95146.38;5017242;28;20198;-77
2023/01/08 00:33:02;;;;;;;181.30;87.80;;;;;;;2.22;100.00;95076.34;5017975;28;20619;-88
2023/01/08 00:35:29;;;;;;;191.10;86.07;;;;;;;2.61;100.00;95150.19;5029292;28;20266;-92
2023/01/08 00:37:56;;;;;;;178.53;87.70;;;;;;;2.73;100.00;95148.94;5025515;28;20223;-78
2023/01/08 00:40:23;;;;;;;167.43;81.20;;;;;;;2.71;99.88;95148.28;5027493;28;20214;-85
2023/01/08 00:42:50;;;;;;;148.63;78.33;;;;;;;2.66;99.79;95145.38;5026732;28;20211;-85
2023/01/08 00:45:18;;;;;;;159.03;76.07;;;;;;;2.63;99.91;95154.19;5021286;28;20212;-87
2023/01/08 00:47:45;;;;;;;155.43;72.27;;;;;;;2.61;100.00;95158.69;5027445;28;20195;-84
2023/01/08 00:50:12;;;;;;;164.97;74.00;;;;;;;2.50;100.00;95146.16;5022991;28;20682;-85
2023/01/08 00:52:39;;;;;;;159.37;76.27;;;;;;;2.50;100.00;95155.63;5027063;28;20203;-81
2023/01/08 00:55:07;;;;;;;156.33;75.47;;;;;;;2.50;100.00;95150.47;5022346;28;20206;-81
2023/01/08 00:57:34;;;;;;;150.67;72.53;;;;;;;2.52;100.00;95153.69;5026874;28;20237;-81
2023/01/08 01:00:01;;;;;;;152.93;72.83;;;;;;;2.51;99.97;95152.09;5016788;28;20195;-82
2023/01/08 01:02:29;;;;;;;164.03;77.53;;;;;;;2.51;99.93;95154.66;5027331;28;20203;-82
2023/01/08 01:04:56;;;;;;;166.13;76.73;;;;;;;2.49;100.00;95157.38;5027253;28;20206;-83
2023/01/08 01:07:23;;;;;;;162.60;74.43;;;;;;;2.46;99.92;95151.75;5018904;28;20234;-83
2023/01/08 01:09:50;;;;;;;146.37;72.67;;;;;;;2.50;99.47;95161.56;5021859;28;20199;-83
2023/01/08 01:12:16;;;;;;;163.73;74.47;;;;;;;2.47;100.00;95155.94;5019481;28;20196;-83
2023/01/08 01:14:43;;;;;;;166.67;80.00;;;;;;;2.36;100.00;95139.06;5029508;28;20910;-82
2023/01/08 01:17:11;;;;;;;156.00;78.60;;;;;;;2.39;100.00;95143.09;5022280;28;20217;-82
2023/01/08 01:19:39;;;;;;;178.50;80.03;;;;;;;2.40;100.00;95142.91;5022339;28;20269;-81
2023/01/08 01:22:07;;;;;;;198.03;92.00;;;;;;;2.46;100.00;95147.41;5017211;28;20765;-83
2023/01/08 01:24:34;;;;;;;183.67;88.73;;;;;;;2.46;100.00;95144.84;5024480;28;20203;-83
2023/01/08 01:27:00;;;;;;;198.27;88.80;;;;;;;2.40;100.00;95153.16;5031012;28;20187;-82
2023/01/08 01:29:27;;;;;;;190.83;88.43;;;;;;;2.37;100.00;95143.22;5027808;28;20196;-86
2023/01/08 01:31:54;;;;;;;193.20;92.93;;;;;;;2.31;100.00;95137.94;5030198;28;20199;-84
2023/01/08 01:34:21;;;;;;;198.20;94.23;;;;;;;2.28;100.00;95144.97;5019868;28;21670;-85
2023/01/08 01:36:49;;;;;;;186.63;91.00;;;;;;;2.38;100.00;95146.59;5029702;28;20234;-85
2023/01/08 01:39:16;;;;;;;186.10;93.50;;;;;;;2.39;100.00;95146.47;5029927;28;20207;-84
2023/01/08 01:41:44;;;;;;;201.97;95.20;;;;;;;2.32;100.00;95145.47;5030876;28;20234;-84
2023/01/08 01:44:38;;;;;;;208.40;101.67;;;;;;;2.32;100.00;95135.19;5016746;28;20200;-85
2023/01/08 01:47:12;;;;;;;206.67;100.73;;;;;;;2.23;100.00;95138.69;5019135;28;20671;-82
2023/01/08 01:49:43;;;;;;;196.87;95.20;;;;;;;2.12;100.00;95119.28;5027761;28;20821;-83
2023/01/08 01:52:12;;;;;;;198.30;98.83;;;;;;;2.19;100.00;95135.63;5025930;28;20294;-83
2023/01/08 01:54:39;;;;;;;197.97;94.43;;;;;;;2.17;100.00;95132.44;5020134;28;20583;-83
2023/01/08 01:57:07;;;;;;;201.00;94.67;;;;;;;2.22;100.00;95131.97;5030200;28;20225;-82
2023/01/08 01:59:34;;;;;;;196.73;93.87;;;;;;;2.23;100.00;95128.44;5028531;28;20202;-83
2023/01/08 02:02:02;;;;;;;195.80;93.70;;;;;;;2.20;99.91;95124.44;5020775;28;20205;-82
2023/01/08 02:04:28;;;;;;;191.73;90.83;;;;;;;2.22;100.00;95124.28;5030436;28;20222;-82
2023/01/08 02:07:02;;;;;;;188.97;90.17;;;;;;;2.23;99.67;95126.69;5028909;28;21490;-82
2023/01/08 02:09:42;;;;;;;184.93;87.80;;;;;;;2.14;100.00;95131.94;5028704;28;20545;-76
2023/01/08 02:12:17;;;;;;;182.17;85.57;;;;;;;2.15;99.64;95128.41;5017076;28;20210;-85
2023/01/08 02:14:53;;;;;;;174.53;81.30;;;;;;;2.13;99.38;95126.03;5029952;28;20190;-86
2023/01/08 02:17:27;;;;;;;166.70;79.27;;;;;;;1.96;99.68;95121.78;5029147;28;20217;-81
2023/01/08 02:20:00;;;;;;;162.97;78.23;;;;;;;1.95;99.83;95104.00;5018484;28;20231;-82
2023/01/08 02:22:45;;;;;;;156.80;75.47;;;;;;;1.97;99.64;95112.31;5026780;28;20179;-84
2023/01/08 02:25:20;;;;;;;154.33;73.37;;;;;;;1.98;99.24;95117.31;5028749;28;20183;-86
2023/01/08 02:27:53;;;;;;;144.20;68.23;;;;;;;1.88;99.45;95118.34;5028803;28;20237;-85
2023/01/08 02:30:19;;;;;;;137.07;66.57;;;;;;;1.84;99.90;95111.94;5022578;28;20194;-84
2023/01/08 02:32:46;;;;;;;124.20;59.67;;;;;;;1.70;100.00;95110.78;5018885;28;20219;-83
2023/01/08 02:35:13;;;;;;;134.13;60.97;;;;;;;1.72;100.00;95121.66;5028819;28;20205;-81
2023/01/08 02:37:41;;;;;;;123.47;59.43;;;;;;;1.69;100.00;95104.03;5019665;28;20234;-80
2023/01/08 02:40:18;;;;;;;124.23;58.40;;;;;;;1.77;100.00;95111.75;5028578;28;20212;-81
2023/01/08 02:42:47;;;;;;;117.10;56.33;;;;;;;1.80;100.00;95105.53;5018108;28;20213;-82
2023/01/08 02:45:31;;;;;;;129.63;59.43;;;;;;;1.78;100.00;95100.56;5016751;28;20202;-84
2023/01/08 02:48:07;;;;;;;120.60;54.40;;;;;;;1.77;100.00;95088.69;5023310;28;20194;-80
2023/01/08 02:50:39;;;;;;;110.97;53.70;;;;;;;1.81;100.00;95091.75;5023093;28;20189;-81
2023/01/08 02:53:12;;;;;;;112.73;55.40;;;;;;;1.84;100.00;95092.25;5025808;28;20689;-80
2023/01/08 02:55:42;;;;;;;120.40;54.77;;;;;;;1.78;100.00;95087.75;5018210;28;20195;-81
2023/01/08 02:58:11;;;;;;;121.73;53.90;;;;;;;1.78;100.00;95092.06;5025130;28;20320;-79
2023/01/08 03:00:41;;;;;;;120.97;53.90;;;;;;;1.78;100.00;95092.88;5020143;28;20210;-81
2023/01/08 03:03:12;;;;;;;115.10;53.43;;;;;;;1.76;100.00;95101.69;5022096;28;20203;-81
2023/01/08 03:05:41;;;;;;;106.33;51.47;;;;;;;1.75;100.00;95100.06;5016146;28;20282;-82
2023/01/08 03:08:09;;;;;;;102.97;51.53;;;;;;;1.70;100.00;95105.66;5017479;28;20191;-81
2023/01/08 03:10:38;;;;;;;113.53;54.13;;;;;;;1.71;100.00;95110.59;5017728;28;20206;-80
2023/01/08 03:13:11;;;;;;;114.10;54.93;;;;;;;1.72;100.00;95113.97;5017553;28;20628;-82
2023/01/08 03:15:49;;;;;;;119.90;55.27;;;;;;;1.67;100.00;95104.16;5025718;28;20198;-81
2023/01/08 03:18:23;;;;;;;118.70;55.20;;;;;;;1.57;100.00;95110.38;5021541;28;20213;-82
2023/01/08 03:20:51;;;;;;;114.27;53.83;;;;;;;1.66;100.00;95109.47;5027677;28;20194;-81
2023/01/08 03:23:22;;;;;;;119.23;55.00;;;;;;;1.66;100.00;95112.84;5024408;28;20214;-81
2023/01/08 03:25:49;;;;;;;116.30;54.53;;;;;;;1.56;100.00;95103.63;5024624;28;20190;-82
2023/01/08 03:28:22;;;;;;;111.37;52.67;;;;;;;1.54;100.00;95108.09;5028801;28;20198;-81
2023/01/08 03:30:53;;;;;;;147.37;62.60;;;;;;;1.57;100.00;95107.81;5027515;28;20205;-81
2023/01/08 03:33:24;;;;;;;149.37;62.97;;;;;;;1.64;100.00;95111.38;5023619;28;20238;-83
2023/01/08 03:35:53;;;;;;;150.40;59.87;;;;;;;1.52;100.00;95098.03;5012798;28;20214;-83
2023/01/08 03:38:25;;;;;;;134.57;59.37;;;;;;;1.56;100.00;95111.31;5018986;28;20215;-83
2023/01/08 03:40:57;;;;;;;131.33;55.80;;;;;;;1.60;100.00;95110.88;5016581;28;20183;-83
2023/01/08 03:43:24;;;;;;;128.93;54.73;;;;;;;1.41;100.00;95105.16;5018615;28;20246;-84
2023/01/08 03:45:56;;;;;;;125.03;55.43;;;;;;;1.42;100.00;95107.56;5027377;28;20217;-82
2023/01/08 03:48:25;;;;;;;109.77;51.70;;;;;;;1.36;100.00;95104.78;5027296;28;20194;-81
2023/01/08 03:50:51;;;;;;;118.00;52.00;;;;;;;1.35;100.00;95098.09;5029004;28;20203;-83
2023/01/08 03:53:18;;;;;;;107.87;48.57;;;;;;;1.29;100.00;95094.38;5024367;28;20194;-82
2023/01/08 03:55:45;;;;;;;110.80;51.77;;;;;;;1.38;100.00;95095.22;5024355;28;20195;-83
2023/01/08 03:58:12;;;;;;;107.20;53.60;;;;;;;1.31;100.00;95092.47;5028419;28;20276;-82
2023/01/08 04:00:39;;;;;;;109.00;51.63;;;;;;;1.28;100.00;95085.06;5018953;28;20581;-86
2023/01/08 04:03:08;;;;;;;103.37;51.83;;;;;;;1.33;100.00;95098.22;5020240;28;20209;-85
2023/01/08 04:05:35;;;;;;;103.40;50.40;;;;;;;1.30;100.00;95097.75;5017225;28;20198;-85
2023/01/08 04:08:02;;;;;;;116.47;56.23;;;;;;;1.27;100.00;95098.03;5022385;28;20210;-85
2023/01/08 04:10:28;;;;;;;128.70;60.10;;;;;;;1.38;100.00;95106.28;5020757;28;20198;-80
2023/01/08 04:12:55;;;;;;;149.30;66.80;;;;;;;1.47;100.00;95109.69;5028290;28;20274;-87
2023/01/08 04:15:22;;;;;;;125.97;62.90;;;;;;;1.48;100.00;95104.41;5028333;28;20207;-88
2023/01/08 04:17:49;;;;;;;129.90;62.53;;;;;;;1.48;100.00;95111.28;5019786;28;20229;-88
2023/01/08 04:20:17;;;;;;;125.20;59.50;;;;;;;1.46;100.00;95100.38;5023331;28;20986;-87
2023/01/08 04:22:44;;;;;;;133.90;61.17;;;;;;;1.44;100.00;95107.44;5024455;28;20206;-83
2023/01/08 04:25:11;;;;;;;131.07;60.33;;;;;;;1.33;100.00;95105.91;5016189;28;20205;-81
2023/01/08 04:27:38;;;;;;;133.60;59.67;;;;;;;1.35;100.00;95106.56;5026833;28;20210;-80
2023/01/08 04:30:06;;;;;;;127.83;60.10;;;;;;;1.41;100.00;95110.28;5022650;28;20217;-81
2023/01/08 04:32:33;;;;;;;133.50;60.97;;;;;;;1.42;100.00;95104.19;5020475;28;20220;-79
2023/01/08 04:35:00;;;;;;;129.03;59.50;;;;;;;1.38;100.00;95113.97;5018034;28;20227;-80
2023/01/08 04:37:28;;;;;;;124.47;58.67;;;;;;;1.31;100.00;95105.25;5024667;28;20191;-80
2023/01/08 04:39:55;;;;;;;126.30;59.60;;;;;;;1.30;100.00;95115.66;5017828;28;20183;-80
2023/01/08 04:42:21;;;;;;;130.00;59.33;;;;;;;1.19;100.00;95109.00;5023007;28;20211;-81
2023/01/08 04:44:48;;;;;;;131.20;59.73;;;;;;;1.18;100.00;95104.06;5030516;28;20285;-80
2023/01/08 04:47:15;;;;;;;116.87;60.10;;;;;;;1.22;100.00;95108.72;5022694;28;20217;-79
2023/01/08 04:49:42;;;;;;;125.20;61.23;;;;;;;1.23;100.00;95105.22;5029398;28;20205;-81
2023/01/08 04:52:09;;;;;;;125.97;60.43;;;;;;;1.30;100.00;95118.22;5024534;28;20677;-80
2023/01/08 04:54:37;;;;;;;126.30;57.67;;;;;;;1.29;100.00;95114.03;5027346;28;20193;-80
2023/01/08 04:57:04;;;;;;;125.40;57.67;;;;;;;1.30;100.00;95113.09;5024894;28;20197;-78
2023/01/08 04:59:31;;;;;;;112.67;56.47;;;;;;;1.26;100.00;95109.22;5024827;28;20225;-82
2023/01/08 05:01:57;;;;;;;117.13;56.97;;;;;;;1.22;100.00;95113.03;5023364;28;20833;-83
2023/01/08 05:04:24;;;;;;;130.80;58.60;;;;;;;1.17;100.00;95113.47;5030872;28;20210;-81
2023/01/08 05:06:51;;;;;;;124.70;58.60;;;;;;;1.13;100.00;95125.75;5030479;28;20203;-84
2023/01/08 05:09:18;;;;;;;132.70;59.90;;;;;;;1.14;100.00;95118.91;5030359;28;20638;-83
2023/01/08 05:11:46;;;;;;;136.07;62.07;;;;;;;1.18;100.00;95127.09;5019663;28;20633;-81
2023/01/08 05:14:13;;;;;;;144.83;68.13;;;;;;;1.15;100.00;95121.28;5030705;28;20187;-82
2023/01/08 05:16:39;;;;;;;145.50;64.80;;;;;;;1.15;100.00;95123.06;5022073;28;20214;-83
2023/01/08 05:19:06;;;;;;;135.77;64.27;;;;;;;1.11;100.00;95119.19;5020722;28;20669;-84
2023/01/08 05:21:33;;;;;;;113.03;50.57;;;;;;;1.16;100.00;95114.44;5030459;28;20209;-84
2023/01/08 05:24:00;;;;;;;112.10;54.33;;;;;;;1.14;100.00;95116.34;5023970;28;20218;-85
2023/01/08 05:26:27;;;;;;;109.77;54.73;;;;;;;1.02;100.00;95118.31;5030050;28;20202;-84
2023/01/08 05:28:55;;;;;;;116.37;53.43;;;;;;;1.01;100.00;95095.47;5026483;28;20209;-83
2023/01/08 05:31:22;;;;;;;109.23;51.50;;;;;;;1.18;100.00;95112.53;5027210;28;20218;-80
2023/01/08 05:33:50;;;;;;;111.33;51.77;;;;;;;1.23;100.00;95112.06;5026114;28;20225;-80
2023/01/08 05:36:17;;;;;;;128.10;58.13;;;;;;;1.15;100.00;95118.72;5029012;28;20214;-80
2023/01/08 05:38:44;;;;;;;116.20;55.43;;;;;;;1.09;100.00;95110.88;5017086;28;20597;-81
2023/01/08 05:41:11;;;;;;;112.07;54.93;;;;;;;1.07;100.00;95123.78;5019962;28;20196;-80
2023/01/08 05:43:38;;;;;;;112.57;52.57;;;;;;;1.03;100.00;95124.25;5019582;28;20207;-80
2023/01/08 05:46:06;;;;;;;120.17;58.70;;;;;;;0.93;100.00;95108.97;5026259;28;20222;-81
2023/01/08 05:48:34;;;;;;;137.13;61.07;;;;;;;1.02;100.00;95117.53;5027696;28;20203;-80
2023/01/08 05:51:01;;;;;;;124.93;56.63;;;;;;;1.01;100.00;95119.28;5021081;28;20191;-81
2023/01/08 05:53:30;;;;;;;133.70;56.73;;;;;;;1.06;100.00;95123.97;5020455;28;20802;-80
2023/01/08 05:56:01;;;;;;;108.47;50.80;;;;;;;0.88;100.00;95102.69;5024790;28;20202;-80
2023/01/08 05:58:29;;;;;;;123.57;55.63;;;;;;;1.02;100.00;95130.31;5028254;28;20226;-81
2023/01/08 06:01:02;;;;;;;127.43;58.30;;;;;;;1.03;100.00;95119.13;5019703;28;20207;-83
2023/01/08 06:03:30;;;;;;;133.27;60.13;;;;;;;0.92;100.00;95119.38;5023310;28;20187;-81
2023/01/08 06:06:01;;;;;;;131.00;60.73;;;;;;;0.98;100.00;95129.78;5030628;28;20214;-83
2023/01/08 06:08:29;;;;;;;137.17;62.77;;;;;;;0.95;100.00;95130.09;5028673;28;20198;-83
2023/01/08 06:10:59;;;;;;;145.47;65.43;;;;;;;0.94;100.00;95131.06;5021088;28;20194;-82
2023/01/08 06:13:26;;;;;;;153.93;64.50;;;;;;;0.89;100.00;95120.47;5030912;28;20642;-85
2023/01/08 06:15:53;;;;;;;145.13;63.57;;;;;;;0.83;100.00;95127.94;5017377;28;20688;-89
2023/01/08 06:18:20;;;;;;;145.13;62.43;;;;;;;0.83;100.00;95131.28;5028473;28;20222;-73
2023/01/08 06:20:48;;;;;;;137.27;63.43;;;;;;;0.88;100.00;95129.09;5019705;28;20546;-76
2023/01/08 06:23:15;;;;;;;127.30;62.17;;;;;;;0.92;100.00;95132.97;5020149;28;20209;-74
2023/01/08 06:25:42;;;;;;;153.00;67.20;;;;;;;0.91;100.00;95136.47;5020157;28;20206;-74
2023/01/08 06:28:09;;;;;;;141.20;63.93;;;;;;;0.94;100.00;95135.38;5020781;28;20205;-74
2023/01/08 06:30:36;;;;;;;136.43;62.93;;;;;;;0.88;100.00;95128.28;5017314;28;20333;-74
2023/01/08 06:33:02;;;;;;;127.53;61.47;;;;;;;0.81;100.00;95122.16;5019937;28;20203;-74
2023/01/08 06:35:29;;;;;;;135.63;63.83;;;;;;;0.87;100.00;95137.69;5022267;28;20198;-74
2023/01/08 06:37:57;;;;;;;145.50;70.13;;;;;;;0.84;100.00;95144.84;5018808;28;20672;-73
2023/01/08 06:40:24;;;;;;;151.27;70.67;;;;;;;0.92;100.00;95153.44;5018086;28;20209;-73
2023/01/08 06:42:51;;;;;;;168.87;82.17;;;;;;;1.00;100.00;95147.56;5021464;28;20208;-73
2023/01/08 06:45:18;;;;;;;189.20;90.43;;;;;;;0.97;100.00;95156.34;5018020;28;20191;-74
2023/01/08 06:47:45;;;;;;;181.97;84.30;;;;;;;0.96;100.00;95148.81;5018871;28;20213;-74
2023/01/08 06:50:12;;;;;;;156.50;73.63;;;;;;;0.97;100.00;95150.44;5020607;28;20202;-73
2023/01/08 06:52:39;;;;;;;145.67;70.47;;;;;;;1.07;100.00;95153.69;5019717;28;20201;-75
2023/01/08 06:55:08;;;;;;;148.70;71.30;;;;;;;1.06;100.00;95158.03;5019509;28;20673;-74
2023/01/08 06:57:35;;;;;;;144.87;70.63;;;;;;;1.07;100.00;95151.13;5019157;28;20203;-74
2023/01/08 07:00:03;;;;;;;117.30;55.33;;;;;;;1.12;100.00;95147.22;5019861;28;20214;-74
2023/01/08 07:02:30;;;;;;;120.53;55.07;;;;;;;1.10;100.00;95149.09;5019737;28;20202;-73
2023/01/08 07:04:56;;;;;;;130.43;62.97;;;;;;;1.08;100.00;95157.88;5018574;28;20194;-74
2023/01/08 07:07:23;;;;;;;152.77;69.33;;;;;;;1.13;100.00;95159.03;5020418;28;20595;-74
2023/01/08 07:09:50;;;;;;;146.80;73.17;;;;;;;1.17;100.00;95164.66;5018983;28;20548;-74
2023/01/08 07:12:18;;;;;;;162.80;78.00;;;;;;;1.28;100.00;95159.31;5020219;28;20199;-74
2023/01/08 07:14:45;;;;;;;140.47;70.37;;;;;;;1.35;100.00;95164.63;4998010;28;20211;-73
2023/01/08 07:17:12;;;;;;;159.83;75.03;;;;;;;1.42;100.00;95173.31;5001550;28;20205;-73
2023/01/08 07:19:42;;;;;;;135.97;65.10;;;;;;;1.50;100.00;95170.84;5018374;28;20218;-73
2023/01/08 07:22:09;;;;;;;93.53;44.33;;;;;;;1.55;100.00;95176.31;5016559;28;20215;-77
2023/01/08 07:24:36;;;;;;;82.30;40.80;;;;;;;1.63;100.00;95179.72;5014973;28;20210;-76
2023/01/08 07:27:02;;;;;;;81.97;40.50;;;;;;;1.69;100.00;95178.31;5020338;28;20194;-73
2023/01/08 07:29:31;;;;;;;73.50;39.30;;;;;;;1.76;100.00;95171.63;5018596;28;20203;-73
2023/01/08 07:31:57;;;;;;;71.53;36.23;;;;;;;1.73;100.00;95166.81;5018953;28;20190;-75
2023/01/08 07:34:24;;;;;;;73.83;34.80;;;;;;;1.84;100.00;95168.31;5019513;28;20231;-73
2023/01/08 07:36:51;;;;;;;70.30;34.60;;;;;;;1.85;100.00;95175.06;5017986;28;20203;-74
2023/01/08 07:39:18;;;;;;;70.60;34.17;;;;;;;1.81;100.00;95161.75;5018090;28;20225;-74
2023/01/08 07:41:45;;;;;;;61.40;33.33;;;;;;;1.92;100.00;95169.16;5021834;28;20651;-74
2023/01/08 07:44:12;;;;;;;74.43;34.77;;;;;;;1.93;100.00;95178.47;5010685;28;20213;-75
2023/01/08 07:46:40;;;;;;;71.57;35.27;;;;;;;2.02;100.00;95176.75;5018103;28;20271;-74
2023/01/08 07:49:07;;;;;;;71.17;35.63;;;;;;;2.10;100.00;95176.78;5018819;28;20191;-74
2023/01/08 07:51:34;;;;;;;60.37;33.80;;;;;;;2.19;100.00;95181.00;5018212;28;20187;-75
2023/01/08 07:54:01;;;;;;;60.43;32.37;;;;;;;2.26;100.00;95180.22;5019213;28;20198;-75
2023/01/08 07:56:28;;;;;;;63.93;34.73;;;;;;;2.31;100.00;95182.31;5019467;28;20198;-76
2023/01/08 07:58:55;;;;;;;72.63;36.47;;;;;;;2.33;100.00;95175.28;5018362;28;20647;-75
2023/01/08 08:01:23;;;;;;;68.17;34.13;;;;;;;2.33;100.00;95187.28;5019404;28;20953;-75
2023/01/08 08:03:51;;;;;;;64.13;33.17;;;;;;;2.39;100.00;95184.13;5020101;28;20213;-75
2023/01/08 08:06:18;;;;;;;64.70;33.97;;;;;;;2.45;100.00;95178.38;5018274;28;20191;-76
2023/01/08 08:08:44;;;;;;;68.77;36.60;;;;;;;2.48;100.00;95183.19;5017697;28;20202;-75
2023/01/08 08:11:11;;;;;;;69.77;36.97;;;;;;;2.47;100.00;95184.94;5021880;28;20206;-75
2023/01/08 08:13:41;;;;;;;67.60;37.93;;;;;;;2.54;100.00;95185.13;5020960;28;20556;-75
2023/01/08 08:16:08;;;;;;;75.17;38.10;;;;;;;2.54;100.00;95180.78;5016515;28;20584;-76
2023/01/08 08:18:35;;;;;;;75.07;39.00;;;;;;;2.61;100.00;95184.34;5018781;28;20861;-77
2023/01/08 08:21:04;;;;;;;76.37;38.93;;;;;;;2.68;100.00;95177.63;5018871;28;20198;-78
2023/01/08 08:23:31;;;;;;;79.17;38.70;;;;;;;2.68;100.00;95175.06;5022370;28;20199;-80
2023/01/08 08:25:58;;;;;;;73.83;38.47;;;;;;;2.82;100.00;95173.66;5020170;28;20630;-78
2023/01/08 08:28:24;;;;;;;83.87;40.53;;;;;;;2.89;100.00;95179.75;5016649;28;20202;-78
2023/01/08 08:30:52;;;;;;;81.60;39.27;;;;;;;3.01;100.00;95175.91;5016545;28;20207;-78
2023/01/08 08:33:19;;;;;;;75.17;39.80;;;;;;;3.06;100.00;95178.03;5020224;28;20323;-78
2023/01/08 08:35:48;;;;;;;81.00;40.87;;;;;;;3.15;99.82;95183.00;5020862;28;20203;-77
2023/01/08 08:38:17;;;;;;;72.57;40.63;;;;;;;3.22;99.27;95188.31;5017899;28;20223;-75
2023/01/08 08:40:44;;;;;;;76.77;40.23;;;;;;;3.30;98.59;95183.97;5018939;28;20285;-79
2023/01/08 08:43:11;;;;;;;73.23;38.83;;;;;;;3.23;97.51;95170.16;5019753;28;20191;-77
2023/01/08 08:45:37;;;;;;;65.23;35.90;;;;;;;3.31;97.45;95190.72;5018609;28;20203;-77
2023/01/08 08:48:06;;;;;;;61.63;31.77;;;;;;;3.34;95.66;95181.88;5018329;28;20200;-78
2023/01/08 08:50:34;;;;;;;68.87;33.93;;;;;;;3.44;95.78;95185.88;5021473;28;20226;-79
2023/01/08 08:53:01;;;;;;;73.40;36.50;;;;;;;3.40;96.07;95168.41;5014986;28;20191;-79
2023/01/08 08:55:29;;;;;;;70.87;37.70;;;;;;;3.53;96.17;95178.16;5019304;28;20193;-78
2023/01/08 08:58:03;;;;;;;68.47;36.17;;;;;;;3.64;94.91;95180.41;5019441;28;20210;-81
2023/01/08 09:00:29;;;;;;;74.60;38.57;;;;;;;3.64;94.38;95180.41;5018439;28;20239;-82
2023/01/08 09:02:56;;;;;;;68.00;35.50;;;;;;;3.69;93.53;95181.56;5015394;28;20203;-82
2023/01/08 09:05:23;;;;;;;72.00;36.37;;;;;;;3.79;94.04;95183.94;5021794;28;20203;-82
2023/01/08 09:07:50;;;;;;;68.83;37.53;;;;;;;3.77;93.81;95178.97;5020808;28;20207;-82
2023/01/08 09:10:17;;;;;;;72.27;38.33;;;;;;;3.85;93.06;95173.81;5025824;28;20204;-83
2023/01/08 09:12:45;;;;;;;76.83;39.30;;;;;;;3.95;92.73;95176.97;5018939;28;20196;-83
2023/01/08 09:15:12;;;;;;;68.70;35.30;;;;;;;4.01;93.02;95172.97;5024872;28;20662;-82
2023/01/08 09:17:39;;;;;;;69.00;36.00;;;;;;;4.09;91.90;95174.72;5023515;28;20200;-79
2023/01/08 09:20:07;;;;;;;59.80;33.63;;;;;;;4.17;92.65;95169.53;5014877;28;20223;-78
2023/01/08 09:22:34;;;;;;;62.00;32.10;;;;;;;4.23;92.41;95145.72;5018793;28;20200;-80
2023/01/08 09:25:01;;;;;;;59.93;32.23;;;;;;;4.44;91.38;95166.56;5019452;28;20191;-79
2023/01/08 09:27:27;;;;;;;61.67;33.00;;;;;;;4.48;90.09;95154.94;5018774;28;20581;-79
2023/01/08 09:29:56;;;;;;;58.30;31.80;;;;;;;4.57;89.60;95156.50;5018624;28;20211;-80
2023/01/08 09:32:22;;;;;;;58.17;31.90;;;;;;;4.61;89.90;95159.56;5025432;28;21028;-80
2023/01/08 09:34:49;;;;;;;59.03;31.43;;;;;;;4.64;89.31;95154.88;5026071;28;20238;-82
2023/01/08 09:37:16;;;;;;;65.40;33.97;;;;;;;4.66;89.28;95144.41;5020121;28;20200;-78
2023/01/08 09:39:43;;;;;;;63.20;35.50;;;;;;;4.78;88.12;95141.28;5021266;28;20236;-78
2023/01/08 09:42:13;;;;;;;66.30;35.70;;;;;;;4.84;88.17;95140.59;5021328;28;20206;-78
2023/01/08 09:44:43;;;;;;;74.50;36.33;;;;;;;4.96;87.43;95141.00;5020687;28;20661;-80
2023/01/08 09:47:24;;;;;;;69.80;35.80;;;;;;;4.99;87.84;95133.72;5019419;28;20190;-77
2023/01/08 09:49:55;;;;;;;68.83;36.40;;;;;;;5.00;87.43;95126.78;5024763;28;20277;-82
2023/01/08 09:52:22;;;;;;;64.27;36.87;;;;;;;5.12;87.80;95131.38;5023598;28;20201;-78
2023/01/08 09:54:48;;;;;;;67.63;37.30;;;;;;;5.19;87.87;95123.78;5014846;28;20222;-81
2023/01/08 09:57:18;;;;;;;64.33;37.03;;;;;;;5.30;87.43;95118.22;5019026;28;20210;-80
2023/01/08 09:59:47;;;;;;;65.13;37.10;;;;;;;5.41;86.80;95111.81;5023014;28;20218;-80
2023/01/08 10:02:17;;;;;;;63.73;36.23;;;;;;;5.73;85.28;95107.16;5021895;28;20281;-81
2023/01/08 10:04:45;;;;;;;67.30;35.67;;;;;;;6.69;84.64;95095.88;5026701;28;20653;-80
2023/01/08 10:07:20;;;;;;;70.33;36.30;;;;;;;8.60;75.05;95113.56;5023283;28;20581;-73
2023/01/08 10:09:47;;;;;;;60.53;34.40;;;;;;;10.74;64.62;95110.25;5019477;28;20199;-80
2023/01/08 10:12:14;;;;;;;55.90;33.37;;;;;;;12.95;54.89;95120.75;5019294;28;20206;-79
2023/01/08 10:14:47;;;;;;;59.60;34.63;;;;;;;14.83;48.33;95121.50;5022143;28;20199;-80
2023/01/08 10:17:24;;;;;;;53.13;34.30;;;;;;;16.50;43.02;95131.09;5017665;28;20206;-80
2023/01/08 10:19:51;;;;;;;48.10;31.57;;;;;;;17.94;39.58;95126.88;5021187;28;20211;-77
2023/01/08 10:22:20;;;;;;;62.07;34.17;;;;;;;19.06;37.16;95126.47;5019989;28;20317;-78
2023/01/08 10:24:47;;;;;;;53.33;32.23;;;;;;;19.66;35.63;95128.47;5015929;28;20199;-78
2023/01/08 10:27:16;;;;;;;55.10;33.63;;;;;;;20.47;34.21;95133.75;5015171;28;20581;-74
2023/01/08 10:29:43;;;;;;;56.13;34.53;;;;;;;20.71;33.09;95129.47;5020550;28;20222;-74
2023/01/08 10:32:15;;;;;;;54.30;32.20;;;;;;;21.04;32.27;95120.06;5020043;28;20195;-75
2023/01/08 10:34:45;;;;;;;52.57;32.83;;;;;;;20.40;32.86;95108.69;5015111;28;20241;-75
2023/01/08 10:37:21;;;;;;;53.63;33.50;;;;;;;20.40;32.73;95106.03;5016779;28;20701;-76
2023/01/08 10:39:49;;;;;;;50.67;32.75;;;;;;;21.14;31.96;95111.34;5017547;28;20679;-78
2023/01/08 10:42:18;;;;;;;55.17;32.58;;;;;;;21.12;31.04;95101.06;5017596;28;20195;-80
2023/01/08 10:44:58;;;;;;;53.85;33.28;;;;;;;20.90;32.17;95095.28;5018784;28;20870;-77
2023/01/08 10:47:28;;;;;;;49.30;33.35;;;;;;;21.39;31.83;95097.97;5019206;28;20195;-76
2023/01/08 10:49:58;;;;;;;53.97;34.40;;;;;;;21.87;30.67;95099.78;5017169;28;20187;-78
2023/01/08 10:52:31;;;;;;;51.63;35.05;;;;;;;22.25;30.05;95095.47;5017519;28;20210;-77
2023/01/08 10:55:10;;;;;;;55.75;34.05;;;;;;;22.40;30.04;95086.56;5017013;28;20206;-78
2023/01/08 10:57:39;;;;;;;46.65;33.00;;;;;;;22.85;29.23;95093.28;5017946;28;20661;-79
2023/01/08 11:00:21;;;;;;;46.50;32.25;;;;;;;23.00;28.67;95093.09;5017314;28;20223;-76
2023/01/08 11:02:49;;;;;;;45.90;31.00;;;;;;;23.24;28.29;95085.06;5022604;28;20982;-79
2023/01/08 11:05:17;;;;;;;46.33;32.15;;;;;;;23.32;28.45;95084.44;5020825;28;20222;-82
2023/01/08 11:07:49;;;;;;;48.58;32.38;;;;;;;23.62;27.88;95084.03;5020811;28;20217;-79
2023/01/08 11:10:22;;;;;;;48.90;32.08;;;;;;;23.43;27.53;95081.41;5024831;28;20270;-81
2023/01/08 11:12:55;;;;;;;47.45;32.65;;;;;;;23.47;28.04;95073.63;5016454;28;20851;-79
2023/01/08 11:15:31;;;;;;;45.22;31.77;;;;;;;23.06;28.21;95078.66;5016004;28;20199;-79
2023/01/08 11:18:17;;;;;;;43.88;29.92;;;;;;;23.26;27.95;95073.09;5014741;28;20601;-81
2023/01/08 11:20:46;;;;;;;48.65;32.60;;;;;;;23.32;27.72;95069.28;5021351;28;20297;-81